Time;durP1;ratioP1;P1;durP2;ratioP2;P2;SDS_P1;SDS_P2;PMS_P1;PMS_P2;Temp;Humidity;BMP_temperature;BMP_pressure;BME280_temperature;BME280_humidity;BME280_pressure;Samples;Min_cycle;Max_cycle;Signal;HPM_P1;HPM_P2
2022/06/30 00:01:48;;;;;;;2.38;1.30;;;18.90;96.50;;;;;;4995976;28;20195;-95
2022/06/30 00:04:14;;;;;;;2.65;1.50;;;18.90;96.40;;;;;;5012447;28;20187;-95
2022/06/30 00:06:40;;;;;;;3.55;1.60;;;18.90;96.40;;;;;;4995672;28;20215;-94
2022/06/30 00:09:28;;;;;;;4.22;1.48;;;18.80;96.60;;;;;;5012389;28;20611;-94
2022/06/30 00:11:53;;;;;;;3.17;1.50;;;18.70;96.80;;;;;;4995765;28;20250;-90
2022/06/30 00:14:19;;;;;;;3.38;1.75;;;18.60;97.20;;;;;;5012311;28;20544;-94
2022/06/30 00:16:45;;;;;;;3.38;1.42;;;18.60;96.90;;;;;;4996951;28;20183;-94
2022/06/30 00:19:11;;;;;;;1.95;1.50;;;18.60;97.10;;;;;;4995819;28;20183;-92
2022/06/30 00:21:37;;;;;;;2.55;1.60;;;18.50;97.20;;;;;;4995545;28;20203;-94
2022/06/30 00:24:04;;;;;;;2.70;1.45;;;18.50;97.00;;;;;;4995843;28;20176;-92
2022/06/30 00:26:29;;;;;;;2.65;1.45;;;18.60;97.10;;;;;;4995864;28;20211;-87
2022/06/30 00:28:55;;;;;;;5.55;1.42;;;18.50;97.40;;;;;;4996224;28;20179;-93
2022/06/30 00:31:21;;;;;;;2.63;1.40;;;18.50;97.40;;;;;;4995286;28;20258;-92
2022/06/30 00:33:46;;;;;;;2.65;1.60;;;18.50;97.30;;;;;;5012961;28;20190;-93
2022/06/30 00:36:12;;;;;;;2.83;1.35;;;18.40;97.30;;;;;;5014013;28;20214;-93
2022/06/30 00:38:38;;;;;;;2.35;1.63;;;18.30;97.50;;;;;;5010214;28;20302;-94
2022/06/30 00:41:04;;;;;;;2.42;1.60;;;18.30;97.80;;;;;;4995790;28;20168;-91
2022/06/30 00:43:30;;;;;;;3.58;1.42;;;18.20;98.00;;;;;;4994554;28;20203;-92
2022/06/30 00:45:56;;;;;;;3.70;1.65;;;18.00;98.10;;;;;;4996072;28;20204;-93
2022/06/30 00:48:22;;;;;;;4.65;1.90;;;18.00;97.80;;;;;;4995199;28;20184;-94
2022/06/30 00:50:47;;;;;;;3.30;1.55;;;18.00;97.90;;;;;;4995360;28;20226;-91
2022/06/30 00:53:13;;;;;;;3.38;1.35;;;18.00;97.70;;;;;;4994847;28;20188;-93
2022/06/30 00:55:39;;;;;;;2.92;1.38;;;18.00;97.80;;;;;;4995734;28;20191;-93
2022/06/30 00:58:08;;;;;;;1.90;1.50;;;18.00;98.30;;;;;;4995049;28;20235;-93
2022/06/30 01:00:45;;;;;;;2.00;1.35;;;17.90;98.50;;;;;;4995995;28;20238;-93
2022/06/30 01:03:11;;;;;;;5.97;2.40;;;17.90;98.60;;;;;;4982908;28;20215;-93
2022/06/30 01:05:37;;;;;;;2.72;1.30;;;17.90;98.60;;;;;;4975454;28;20184;-94
2022/06/30 01:08:12;;;;;;;3.33;1.60;;;17.80;98.80;;;;;;4993062;28;20184;-94
2022/06/30 01:13:21;;;;;;;4.07;1.30;;;17.60;99.40;;;;;;4982305;28;20258;-93
2022/06/30 01:15:47;;;;;;;4.03;1.63;;;17.60;99.30;;;;;;4991604;28;20180;-94
2022/06/30 01:18:13;;;;;;;2.95;1.60;;;17.70;99.20;;;;;;5004004;28;20338;-94
2022/06/30 01:20:39;;;;;;;2.85;1.73;;;17.60;99.60;;;;;;4994921;28;20179;-92
2022/06/30 01:23:05;;;;;;;1.92;1.73;;;17.50;99.80;;;;;;4991234;28;20220;-94
2022/06/30 01:25:31;;;;;;;3.85;1.80;;;17.40;99.50;;;;;;4976400;28;20176;-94
2022/06/30 01:27:58;;;;;;;4.00;1.40;;;17.40;99.40;;;;;;4984569;28;20188;-94
2022/06/30 01:30:24;;;;;;;3.63;1.75;;;17.50;99.60;;;;;;4977350;28;20513;-93
2022/06/30 01:32:51;;;;;;;4.53;1.40;;;17.50;99.60;;;;;;5001044;28;20282;-90
2022/06/30 01:35:17;;;;;;;2.80;1.80;;;17.50;99.70;;;;;;4991249;28;20187;-93
2022/06/30 01:37:49;;;;;;;1.67;1.45;;;17.50;99.80;;;;;;5425301;23;20238;-87
2022/06/30 01:40:16;;;;;;;2.70;1.98;;;17.40;99.90;;;;;;4974030;28;20208;-87
2022/06/30 01:42:42;;;;;;;3.13;1.80;;;17.40;99.70;;;;;;4973918;28;20529;-87
2022/06/30 01:45:08;;;;;;;1.95;1.60;;;17.40;99.70;;;;;;4972547;28;20220;-87
2022/06/30 01:47:35;;;;;;;3.38;1.92;;;17.40;99.90;;;;;;4975772;28;20200;-87
2022/06/30 01:50:05;;;;;;;1.50;1.40;;;17.40;99.90;;;;;;4973942;28;20538;-87
2022/06/30 01:52:31;;;;;;;2.05;1.60;;;17.30;99.90;;;;;;4975693;28;20161;-86
2022/06/30 01:54:56;;;;;;;3.83;1.60;;;17.20;99.90;;;;;;4973635;28;20196;-88
2022/06/30 01:57:22;;;;;;;2.53;1.80;;;17.30;99.90;;;;;;4975641;28;20545;-87
2022/06/30 01:59:48;;;;;;;2.83;1.67;;;17.30;99.90;;;;;;4964963;28;20192;-87
2022/06/30 02:02:13;;;;;;;4.18;1.88;;;17.30;99.90;;;;;;4960209;28;20169;-87
2022/06/30 02:04:48;;;;;;;1.77;1.60;;;17.40;99.90;;;;;;4960490;28;20325;-88
2022/06/30 02:07:18;;;;;;;2.88;1.58;;;17.30;99.90;;;;;;4977386;28;20646;-88
2022/06/30 02:09:51;;;;;;;5.70;1.85;;;17.30;99.90;;;;;;4997203;28;20219;-88
2022/06/30 02:15:06;;;;;;;2.17;1.40;;;17.20;99.90;;;;;;4979184;28;20200;-88
2022/06/30 02:17:32;;;;;;;2.58;1.60;;;17.20;99.90;;;;;;4979130;28;20638;-88
2022/06/30 02:20:00;;;;;;;1.50;1.27;;;17.30;99.90;;;;;;4964872;28;20197;-89
2022/06/30 02:22:26;;;;;;;3.88;1.90;;;17.30;99.90;;;;;;4974909;28;20522;-89
2022/06/30 02:24:52;;;;;;;4.38;1.88;;;17.30;99.90;;;;;;4971799;28;20189;-89
2022/06/30 02:27:20;;;;;;;2.30;1.63;;;17.30;99.90;;;;;;4979144;28;20631;-88
2022/06/30 02:29:47;;;;;;;4.32;1.73;;;17.30;99.90;;;;;;4977702;28;20543;-91
2022/06/30 02:32:13;;;;;;;2.10;1.63;;;17.30;99.90;;;;;;4979221;28;20169;-90
2022/06/30 02:34:38;;;;;;;3.72;1.80;;;17.30;99.90;;;;;;4976001;28;20188;-90
2022/06/30 02:37:04;;;;;;;2.17;1.90;;;17.30;99.90;;;;;;4994085;28;20196;-90
2022/06/30 02:39:31;;;;;;;6.65;2.20;;;17.40;99.90;;;;;;4978396;28;20321;-87
2022/06/30 02:41:57;;;;;;;3.05;1.77;;;17.40;99.90;;;;;;4974325;28;20511;-91
2022/06/30 02:44:22;;;;;;;3.13;1.50;;;17.40;99.90;;;;;;4984488;28;20235;-91
2022/06/30 02:46:50;;;;;;;5.07;1.60;;;17.50;99.80;;;;;;4978742;28;20212;-89
2022/06/30 02:49:19;;;;;;;7.10;2.08;;;17.50;99.80;;;;;;4974051;28;20210;-89
2022/06/30 02:51:45;;;;;;;4.13;1.85;;;17.60;99.70;;;;;;4974398;28;20185;-89
2022/06/30 02:54:11;;;;;;;3.22;1.80;;;17.50;99.70;;;;;;4966324;28;20275;-95
2022/06/30 02:56:37;;;;;;;4.40;1.85;;;17.50;99.80;;;;;;4977307;28;20280;-90
2022/06/30 02:59:02;;;;;;;3.33;1.90;;;17.50;99.70;;;;;;4974115;28;20185;-89
2022/06/30 03:01:31;;;;;;;2.30;1.80;;;17.50;99.70;;;;;;4959208;28;20228;-90
2022/06/30 03:03:57;;;;;;;5.00;1.73;;;17.50;99.80;;;;;;4959100;28;20197;-91
2022/06/30 03:06:23;;;;;;;2.55;1.40;;;17.50;99.70;;;;;;4967623;28;20275;-90
2022/06/30 03:08:49;;;;;;;3.50;1.58;;;17.50;99.80;;;;;;4971573;28;20181;-92
2022/06/30 03:11:18;;;;;;;3.80;1.77;;;17.50;99.50;;;;;;4973230;28;20196;-90
2022/06/30 03:13:44;;;;;;;2.97;1.70;;;17.50;99.70;;;;;;4974430;28;20516;-88
2022/06/30 03:16:11;;;;;;;3.80;1.70;;;17.50;99.60;;;;;;4978252;28;20176;-90
2022/06/30 03:18:37;;;;;;;4.25;2.10;;;17.40;99.80;;;;;;4976906;28;20496;-91
2022/06/30 03:21:03;;;;;;;4.68;1.80;;;17.50;99.80;;;;;;4978253;28;20176;-88
2022/06/30 03:23:29;;;;;;;2.20;1.80;;;17.50;99.90;;;;;;4977618;28;20185;-89
2022/06/30 03:25:55;;;;;;;2.97;1.90;;;17.50;99.90;;;;;;4976816;28;20247;-88
2022/06/30 03:28:20;;;;;;;4.38;1.85;;;17.40;99.90;;;;;;4966411;28;20196;-87
2022/06/30 03:30:56;;;;;;;2.63;1.90;;;17.50;99.90;;;;;;4957778;28;20184;-89
2022/06/30 03:33:22;;;;;;;2.65;1.92;;;17.50;99.90;;;;;;4957475;28;20642;-90
2022/06/30 03:35:48;;;;;;;3.35;1.92;;;17.40;99.90;;;;;;4957552;29;20204;-90
2022/06/30 03:38:14;;;;;;;3.65;1.90;;;17.40;99.90;;;;;;4967389;28;20230;-91
2022/06/30 03:40:41;;;;;;;4.18;1.75;;;17.40;99.90;;;;;;4977090;28;20267;-89
2022/06/30 03:43:07;;;;;;;2.63;1.70;;;17.40;99.90;;;;;;4973595;28;20233;-90
2022/06/30 03:45:33;;;;;;;5.03;2.08;;;17.40;99.90;;;;;;4957454;28;20632;-91
2022/06/30 03:48:04;;;;;;;8.45;2.08;;;17.40;99.90;;;;;;4968529;28;20235;-90
2022/06/30 03:50:30;;;;;;;4.30;1.75;;;17.30;99.90;;;;;;4976976;28;20181;-94
2022/06/30 03:52:57;;;;;;;2.50;1.70;;;17.40;99.90;;;;;;4978088;28;20169;-93
2022/06/30 03:55:23;;;;;;;4.53;1.90;;;17.40;99.90;;;;;;4977437;28;20687;-94
2022/06/30 03:57:49;;;;;;;3.38;1.95;;;17.40;99.90;;;;;;4976957;28;20185;-91
2022/06/30 04:00:15;;;;;;;4.65;2.80;;;17.40;99.90;;;;;;4976343;28;20207;-90
2022/06/30 04:02:41;;;;;;;6.80;2.28;;;17.40;99.90;;;;;;4977345;28;20616;-88
2022/06/30 04:05:07;;;;;;;4.28;2.20;;;17.40;99.90;;;;;;4976566;28;20234;-88
2022/06/30 04:07:39;;;;;;;3.92;2.25;;;17.40;99.90;;;;;;4976079;28;20261;-87
2022/06/30 04:10:06;;;;;;;4.40;2.72;;;17.40;99.90;;;;;;4965980;28;20181;-87
2022/06/30 04:12:33;;;;;;;3.42;2.10;;;17.50;99.90;;;;;;4963248;28;20637;-88
2022/06/30 04:14:58;;;;;;;3.38;2.28;;;17.50;99.90;;;;;;4957538;29;20174;-87
2022/06/30 04:17:24;;;;;;;9.20;2.80;;;17.50;99.90;;;;;;4989288;28;20184;-89
2022/06/30 04:19:50;;;;;;;5.95;2.20;;;17.40;99.90;;;;;;4975653;28;20240;-85
2022/06/30 04:22:15;;;;;;;2.83;2.03;;;17.40;99.90;;;;;;4976219;28;20520;-85
2022/06/30 04:24:41;;;;;;;3.80;2.45;;;17.50;99.90;;;;;;4975399;28;20173;-87
2022/06/30 04:27:07;;;;;;;2.28;2.08;;;17.50;99.90;;;;;;4974210;28;20651;-86
2022/06/30 04:29:33;;;;;;;4.88;2.20;;;17.40;99.90;;;;;;4975176;28;20275;-87
2022/06/30 04:34:43;;;;;;;2.90;2.10;;;17.50;99.90;;;;;;4976706;28;20615;-88
2022/06/30 04:37:09;;;;;;;2.60;1.98;;;17.50;99.90;;;;;;4975408;28;20185;-87
2022/06/30 04:39:34;;;;;;;4.53;1.92;;;17.50;99.90;;;;;;4990047;28;20306;-88
2022/06/30 04:42:01;;;;;;;8.55;2.20;;;17.60;99.90;;;;;;4978722;28;20694;-87
2022/06/30 04:44:27;;;;;;;2.60;1.90;;;17.60;99.90;;;;;;4975126;28;20517;-87
2022/06/30 04:46:52;;;;;;;3.10;1.75;;;17.60;99.90;;;;;;4974578;28;20216;-86
2022/06/30 04:49:18;;;;;;;2.42;1.70;;;17.70;99.90;;;;;;4975121;28;20180;-87
2022/06/30 04:51:44;;;;;;;2.30;2.10;;;17.80;99.90;;;;;;4960240;28;20247;-86
2022/06/30 04:54:09;;;;;;;4.93;2.10;;;17.80;99.90;;;;;;4966688;28;20177;-86
2022/06/30 04:56:35;;;;;;;4.30;2.05;;;17.90;99.90;;;;;;4973973;28;20275;-86
2022/06/30 04:59:01;;;;;;;7.57;2.20;;;17.90;99.90;;;;;;4975931;28;20177;-86
2022/06/30 05:01:27;;;;;;;3.42;1.92;;;17.90;99.90;;;;;;4975106;28;20538;-84
2022/06/30 05:03:52;;;;;;;3.80;2.20;;;17.90;99.90;;;;;;4975174;28;20201;-86
2022/06/30 05:06:18;;;;;;;4.05;2.08;;;17.90;99.90;;;;;;4974575;28;20216;-85
2022/06/30 05:08:44;;;;;;;2.58;2.30;;;17.90;99.90;;;;;;4974995;28;20668;-86
2022/06/30 05:11:09;;;;;;;2.55;2.08;;;18.00;99.90;;;;;;4975072;28;20319;-86
2022/06/30 05:13:35;;;;;;;3.50;1.95;;;18.10;99.90;;;;;;4975343;28;20191;-87
2022/06/30 05:16:02;;;;;;;4.72;1.90;;;18.20;99.90;;;;;;4975547;28;20243;-88
2022/06/30 05:18:28;;;;;;;3.10;1.85;;;18.30;99.90;;;;;;4972777;28;20243;-88
2022/06/30 05:20:54;;;;;;;3.67;2.10;;;18.30;99.90;;;;;;4962309;28;20172;-88
2022/06/30 05:23:20;;;;;;;5.30;1.90;;;18.40;99.90;;;;;;4974183;28;20172;-88
2022/06/30 05:28:30;;;;;;;4.50;2.05;;;18.50;99.90;;;;;;4975126;28;20616;-86
2022/06/30 05:30:56;;;;;;;3.58;2.20;;;18.50;99.90;;;;;;4973451;28;20192;-87
2022/06/30 05:33:22;;;;;;;5.38;2.15;;;18.60;99.90;;;;;;4973777;28;20288;-86
2022/06/30 05:35:49;;;;;;;3.28;2.03;;;18.70;99.90;;;;;;4974211;28;20231;-85
2022/06/30 05:38:15;;;;;;;3.88;1.92;;;18.70;99.90;;;;;;4974019;28;20320;-86
2022/06/30 05:40:41;;;;;;;2.90;1.80;;;18.80;99.90;;;;;;4972436;28;20263;-86
2022/06/30 05:43:11;;;;;;;2.42;1.80;;;18.80;99.90;;;;;;4974936;28;20219;-87
2022/06/30 05:45:38;;;;;;;3.83;1.80;;;19.00;99.90;;;;;;4973837;28;20528;-86
2022/06/30 05:48:04;;;;;;;2.28;2.00;;;19.10;99.90;;;;;;4974194;28;20185;-86
2022/06/30 05:50:30;;;;;;;2.53;1.90;;;19.10;99.90;;;;;;4974674;28;20646;-86
2022/06/30 05:52:57;;;;;;;2.63;2.05;;;19.10;99.90;;;;;;4989239;28;20246;-85
2022/06/30 05:55:22;;;;;;;3.35;2.13;;;19.20;99.90;;;;;;4973370;28;20188;-85
2022/06/30 05:57:58;;;;;;;2.63;2.05;;;19.20;99.90;;;;;;4972019;28;20195;-86
2022/06/30 06:00:26;;;;;;;2.65;1.83;;;19.20;99.90;;;;;;4974017;28;20660;-86
2022/06/30 06:02:53;;;;;;;4.60;2.38;;;19.20;99.90;;;;;;4974119;28;20181;-85
2022/06/30 06:05:20;;;;;;;3.33;2.20;;;19.30;99.90;;;;;;4973575;28;20180;-86
2022/06/30 06:07:46;;;;;;;3.15;2.25;;;19.30;99.90;;;;;;4973767;28;20252;-85
2022/06/30 06:10:13;;;;;;;2.83;2.08;;;19.30;99.90;;;;;;4972650;28;20223;-86
2022/06/30 06:12:45;;;;;;;5.88;2.70;;;19.30;99.90;;;;;;4972833;28;20188;-90
2022/06/30 06:15:11;;;;;;;7.88;2.20;;;19.40;99.90;;;;;;4973801;28;20181;-89
2022/06/30 06:17:46;;;;;;;6.78;2.00;;;19.50;99.90;;;;;;4972876;28;20192;-86
2022/06/30 06:20:14;;;;;;;3.20;2.25;;;19.50;99.90;;;;;;4973445;28;20639;-85
2022/06/30 06:22:41;;;;;;;3.80;2.00;;;19.60;99.90;;;;;;4973448;28;20646;-85
2022/06/30 06:25:07;;;;;;;3.30;2.17;;;19.70;99.90;;;;;;4972829;28;20212;-87
2022/06/30 06:27:34;;;;;;;8.75;2.22;;;19.80;99.90;;;;;;4955654;28;20212;-85
2022/06/30 06:30:00;;;;;;;4.22;2.17;;;19.90;99.90;;;;;;4964537;28;20185;-85
2022/06/30 06:32:27;;;;;;;3.25;2.10;;;20.00;99.90;;;;;;4971789;28;20646;-85
2022/06/30 06:34:53;;;;;;;5.57;2.40;;;20.10;99.90;;;;;;4968765;28;20181;-86
2022/06/30 06:37:18;;;;;;;3.10;2.30;;;20.10;99.90;;;;;;4968268;28;20201;-85
2022/06/30 06:39:44;;;;;;;6.38;2.38;;;20.20;99.90;;;;;;4966183;28;20684;-86
2022/06/30 06:42:10;;;;;;;6.22;2.58;;;20.20;99.90;;;;;;4966754;28;20181;-86
2022/06/30 06:44:35;;;;;;;2.67;2.15;;;20.30;99.90;;;;;;4972813;28;20197;-85
2022/06/30 06:47:01;;;;;;;5.78;2.20;;;20.30;99.90;;;;;;4977028;28;20268;-85
2022/06/30 06:49:27;;;;;;;2.70;2.20;;;20.40;99.90;;;;;;4976803;28;20630;-85
2022/06/30 06:51:53;;;;;;;4.57;2.42;;;20.60;99.90;;;;;;4976838;28;20714;-86
2022/06/30 06:54:19;;;;;;;6.82;2.65;;;20.70;99.80;;;;;;4976335;28;20608;-85
2022/06/30 06:56:45;;;;;;;4.75;2.72;;;20.80;99.20;;;;;;4974836;28;20200;-85
2022/06/30 06:59:10;;;;;;;3.38;2.22;;;20.90;99.00;;;;;;4978081;28;20639;-86
2022/06/30 07:01:36;;;;;;;8.57;2.72;;;21.10;99.20;;;;;;4976569;28;20181;-86
2022/06/30 07:04:02;;;;;;;3.42;2.40;;;21.10;99.00;;;;;;4977876;28;20180;-88
2022/06/30 07:06:28;;;;;;;4.95;2.35;;;21.20;99.20;;;;;;4976174;28;20208;-90
2022/06/30 07:08:54;;;;;;;2.97;2.00;;;21.30;99.10;;;;;;4973853;28;20284;-90
2022/06/30 07:11:19;;;;;;;8.23;2.50;;;21.30;98.70;;;;;;4986238;28;20587;-88
2022/06/30 07:13:45;;;;;;;3.40;2.42;;;21.40;98.50;;;;;;4966180;28;20189;-88
2022/06/30 07:16:12;;;;;;;3.03;2.17;;;21.40;99.20;;;;;;4977480;28;20211;-86
2022/06/30 07:18:38;;;;;;;3.50;2.13;;;21.40;98.50;;;;;;4978351;28;20180;-88
2022/06/30 07:21:03;;;;;;;2.83;2.30;;;21.50;98.30;;;;;;4972064;28;20189;-90
2022/06/30 07:23:30;;;;;;;2.38;2.00;;;21.70;97.80;;;;;;4976949;28;20173;-87
2022/06/30 07:25:56;;;;;;;2.92;2.38;;;21.90;97.70;;;;;;4972969;28;20185;-89
2022/06/30 07:28:22;;;;;;;3.40;2.63;;;22.10;98.00;;;;;;4961746;28;20624;-92
2022/06/30 07:30:47;;;;;;;4.15;2.40;;;22.20;97.20;;;;;;4971734;28;20238;-87
2022/06/30 07:33:17;;;;;;;4.22;2.42;;;22.30;97.10;;;;;;4973447;28;20854;-89
2022/06/30 07:35:43;;;;;;;3.40;2.33;;;22.30;97.60;;;;;;4961991;28;20193;-89
2022/06/30 07:38:08;;;;;;;4.70;2.50;;;22.30;96.90;;;;;;4973763;28;20224;-87
2022/06/30 07:40:34;;;;;;;3.90;2.50;;;22.40;97.60;;;;;;4976915;28;20912;-92
2022/06/30 07:43:00;;;;;;;3.80;2.42;;;22.50;97.40;;;;;;4972802;28;20181;-88
2022/06/30 07:45:25;;;;;;;4.90;2.50;;;22.60;96.90;;;;;;4973517;28;20184;-86
2022/06/30 07:47:53;;;;;;;3.00;2.70;;;22.60;96.80;;;;;;4977622;28;20307;-89
2022/06/30 07:50:19;;;;;;;3.72;2.65;;;22.60;96.60;;;;;;4978010;28;20169;-90
2022/06/30 07:52:46;;;;;;;5.15;2.78;;;22.70;96.80;;;;;;4977612;28;20216;-91
2022/06/30 07:55:13;;;;;;;3.17;2.45;;;22.70;97.20;;;;;;4975537;28;20235;-88
2022/06/30 07:57:42;;;;;;;5.35;2.92;;;22.90;97.40;;;;;;4977088;28;20227;-90
2022/06/30 08:00:10;;;;;;;3.28;2.45;;;22.80;96.30;;;;;;4977117;28;20204;-91
2022/06/30 08:02:44;;;;;;;3.85;2.33;;;23.00;96.50;;;;;;4976713;28;20191;-86
2022/06/30 08:05:09;;;;;;;7.50;2.70;;;23.00;96.60;;;;;;4975851;28;20188;-92
2022/06/30 08:07:36;;;;;;;4.30;2.53;;;23.00;96.30;;;;;;4976599;28;20208;-87
2022/06/30 08:10:03;;;;;;;4.53;2.80;;;22.90;96.60;;;;;;4970161;28;20189;-87
2022/06/30 08:12:28;;;;;;;5.22;2.97;;;23.00;96.50;;;;;;4970343;28;20185;-90
2022/06/30 08:14:54;;;;;;;5.30;3.08;;;23.20;96.50;;;;;;4964127;28;20188;-89
2022/06/30 08:17:20;;;;;;;5.05;2.65;;;23.50;96.40;;;;;;4976073;28;20904;-91
2022/06/30 08:19:46;;;;;;;5.07;2.78;;;23.70;96.20;;;;;;4976536;28;20268;-86
2022/06/30 08:22:11;;;;;;;6.40;3.53;;;24.00;95.90;;;;;;4976019;28;20184;-96
2022/06/30 08:24:37;;;;;;;6.13;3.10;;;24.10;95.40;;;;;;4973303;28;20189;-91
2022/06/30 08:27:03;;;;;;;5.00;3.05;;;24.20;95.80;;;;;;4977143;28;20204;-87
2022/06/30 08:29:32;;;;;;;4.20;3.10;;;24.50;96.10;;;;;;4975226;28;20501;-91
2022/06/30 08:31:59;;;;;;;3.83;2.88;;;24.60;94.90;;;;;;4969102;28;20209;-91
2022/06/30 08:34:25;;;;;;;5.25;3.00;;;24.90;95.60;;;;;;4957708;28;20193;-89
2022/06/30 08:36:51;;;;;;;5.70;3.50;;;25.00;94.60;;;;;;4959904;28;20196;-89
2022/06/30 08:42:04;;;;;;;4.00;3.55;;;25.10;94.50;;;;;;4976892;28;20250;-88
2022/06/30 08:44:36;;;;;;;4.38;3.58;;;25.20;94.50;;;;;;4963319;28;20180;-91
2022/06/30 08:47:03;;;;;;;5.68;3.50;;;25.20;94.50;;;;;;4957564;29;20205;-91
2022/06/30 08:49:29;;;;;;;5.78;3.95;;;25.40;94.60;;;;;;4957473;28;20587;-88
2022/06/30 08:51:59;;;;;;;6.68;3.88;;;25.40;94.10;;;;;;4971057;28;20212;-93
2022/06/30 08:54:27;;;;;;;6.88;4.30;;;25.50;94.30;;;;;;4957105;29;20185;-91
2022/06/30 08:56:55;;;;;;;3.85;3.47;;;25.50;94.20;;;;;;4973793;28;20185;-91
2022/06/30 08:59:22;;;;;;;6.85;3.80;;;25.60;94.40;;;;;;4974645;28;20520;-90
2022/06/30 09:01:48;;;;;;;9.80;4.20;;;25.70;94.80;;;;;;4972053;28;20185;-88
2022/06/30 09:04:15;;;;;;;6.35;3.75;;;25.90;94.80;;;;;;4973413;28;20195;-91
2022/06/30 09:06:44;;;;;;;6.93;4.07;;;26.00;95.40;;;;;;4969040;28;20227;-89
2022/06/30 09:09:11;;;;;;;9.10;4.65;;;26.20;93.90;;;;;;4990047;28;20639;-91
2022/06/30 09:12:15;;;;;;;5.53;4.28;;;26.20;94.30;;;;;;4975357;28;20813;-88
2022/06/30 09:14:44;;;;;;;4.65;4.00;;;26.40;93.50;;;;;;4965570;28;20635;-91
2022/06/30 09:17:15;;;;;;;6.00;3.90;;;26.40;94.10;;;;;;4975233;28;20204;-89
2022/06/30 09:19:58;;;;;;;5.00;3.88;;;26.60;93.90;;;;;;4967930;28;20185;-89
2022/06/30 09:22:34;;;;;;;6.57;4.05;;;26.70;93.80;;;;;;4967993;28;20187;-91
2022/06/30 09:25:12;;;;;;;5.93;4.30;;;26.90;93.70;;;;;;4974469;28;20178;-93
2022/06/30 09:27:49;;;;;;;6.90;4.80;;;26.90;93.10;;;;;;4971006;28;20219;-93
2022/06/30 09:30:23;;;;;;;4.78;3.95;;;27.00;93.40;;;;;;4963102;28;20579;-90
2022/06/30 09:32:54;;;;;;;5.10;3.95;;;27.00;93.50;;;;;;4974217;28;20189;-90
2022/06/30 09:35:28;;;;;;;7.00;4.45;;;27.20;93.40;;;;;;4960330;28;20185;-93
2022/06/30 09:38:06;;;;;;;7.57;4.45;;;27.20;93.10;;;;;;4972194;28;20235;-92
2022/06/30 09:41:01;;;;;;;4.20;3.80;;;27.30;93.10;;;;;;4970069;28;20184;-93
2022/06/30 09:43:36;;;;;;;5.78;4.20;;;27.40;93.90;;;;;;4976543;28;20204;-94
2022/06/30 09:46:03;;;;;;;4.97;4.15;;;27.50;93.50;;;;;;4957115;29;20177;-94
2022/06/30 09:48:32;;;;;;;7.68;4.68;;;27.70;93.10;;;;;;4968011;28;20623;-95
2022/06/30 09:51:03;;;;;;;5.13;4.28;;;27.80;92.80;;;;;;4970150;28;20215;-90
2022/06/30 09:53:31;;;;;;;5.15;4.25;;;27.80;92.80;;;;;;4972300;28;20188;-93
2022/06/30 09:56:11;;;;;;;7.75;4.72;;;27.80;92.70;;;;;;4972303;28;20199;-92
2022/06/30 09:58:42;;;;;;;7.20;4.30;;;27.80;92.50;;;;;;4961324;28;20177;-92
2022/06/30 10:01:09;;;;;;;6.65;4.53;;;27.90;92.80;;;;;;4956483;28;20189;-94
2022/06/30 10:03:47;;;;;;;6.55;4.22;;;27.90;92.30;;;;;;4960246;28;20695;-93
2022/06/30 10:06:15;;;;;;;4.95;4.45;;;28.00;92.30;;;;;;4973583;28;20241;-96
2022/06/30 10:08:41;;;;;;;6.03;4.28;;;28.00;92.30;;;;;;4976028;28;20197;-96
2022/06/30 10:11:07;;;;;;;7.47;4.75;;;28.00;92.40;;;;;;4976646;28;20185;-90
2022/06/30 10:13:39;;;;;;;4.95;4.20;;;28.10;92.70;;;;;;4976990;28;20177;-88
2022/06/30 10:16:06;;;;;;;7.40;5.00;;;28.20;91.70;;;;;;4976527;28;20288;-89
2022/06/30 10:18:36;;;;;;;5.20;4.05;;;28.10;91.70;;;;;;4976366;28;20196;-89
2022/06/30 10:21:04;;;;;;;10.10;4.30;;;28.30;92.10;;;;;;4980786;28;20185;-88
2022/06/30 10:23:30;;;;;;;7.57;4.38;;;28.40;91.30;;;;;;4980343;28;20631;-89
2022/06/30 10:25:56;;;;;;;5.95;4.30;;;28.40;91.90;;;;;;4994039;28;20223;-88
2022/06/30 10:28:27;;;;;;;7.00;4.40;;;28.30;91.80;;;;;;4983586;28;20193;-89
2022/06/30 10:31:06;;;;;;;5.30;4.80;;;28.40;91.60;;;;;;4979050;28;20231;-89
2022/06/30 10:33:43;;;;;;;9.10;5.20;;;28.30;92.20;;;;;;4974399;28;20181;-89
2022/06/30 10:36:21;;;;;;;5.57;4.65;;;28.20;92.60;;;;;;4979896;28;20214;-88
2022/06/30 10:39:00;;;;;;;6.30;4.78;;;28.00;92.70;;;;;;4970495;28;20228;-90
2022/06/30 10:41:26;;;;;;;5.93;4.78;;;28.20;92.50;;;;;;4978875;28;20643;-89
2022/06/30 10:44:04;;;;;;;5.38;4.85;;;28.40;92.50;;;;;;4965105;28;20185;-89
2022/06/30 10:46:56;;;;;;;5.72;4.57;;;28.80;92.00;;;;;;4980664;28;20287;-87
2022/06/30 10:49:26;;;;;;;5.30;4.78;;;29.20;91.90;;;;;;4978864;28;20569;-86
2022/06/30 10:51:57;;;;;;;7.35;4.95;;;29.40;91.30;;;;;;5000019;28;20184;-86
2022/06/30 10:54:33;;;;;;;5.95;4.88;;;29.30;90.10;;;;;;4993629;28;20525;-88
2022/06/30 10:57:01;;;;;;;8.65;5.18;;;29.20;91.30;;;;;;4974590;28;20191;-88
2022/06/30 10:59:36;;;;;;;5.72;5.07;;;28.80;91.60;;;;;;4971693;28;20189;-88
2022/06/30 11:02:10;;;;;;;6.93;5.07;;;28.60;91.50;;;;;;4962960;29;20615;-88
2022/06/30 11:04:39;;;;;;;5.80;5.25;;;28.30;91.80;;;;;;4973719;28;20184;-87
2022/06/30 11:07:09;;;;;;;6.68;4.70;;;28.30;92.20;;;;;;4963514;28;20212;-88
2022/06/30 11:10:01;;;;;;;5.70;4.65;;;28.30;92.20;;;;;;4974751;28;20278;-88
2022/06/30 11:12:29;;;;;;;7.88;5.63;;;28.30;91.00;;;;;;4975434;28;20693;-91
2022/06/30 11:14:57;;;;;;;7.97;5.10;;;28.10;92.00;;;;;;4970619;28;20221;-89
2022/06/30 11:17:28;;;;;;;7.70;4.75;;;28.30;92.30;;;;;;4961678;28;20600;-88
2022/06/30 11:20:05;;;;;;;6.28;4.80;;;28.60;91.50;;;;;;4973215;28;20232;-92
2022/06/30 11:22:32;;;;;;;5.40;4.50;;;28.70;91.70;;;;;;4960746;28;20180;-86
2022/06/30 11:25:03;;;;;;;6.93;4.65;;;28.60;91.50;;;;;;4971809;28;20200;-90
2022/06/30 11:27:35;;;;;;;7.32;4.78;;;28.40;91.60;;;;;;4986160;28;20624;-93
2022/06/30 11:30:05;;;;;;;5.03;4.53;;;28.50;91.70;;;;;;4963819;28;20237;-86
2022/06/30 11:32:31;;;;;;;6.07;4.45;;;28.80;91.30;;;;;;4967747;28;20169;-89
2022/06/30 11:34:57;;;;;;;6.38;4.93;;;29.20;91.10;;;;;;4974235;28;20188;-89
2022/06/30 11:37:25;;;;;;;7.15;5.00;;;29.60;91.00;;;;;;4975841;28;20195;-88
2022/06/30 11:40:05;;;;;;;8.35;4.97;;;29.90;90.60;;;;;;4990545;28;20235;-89
2022/06/30 11:42:31;;;;;;;5.93;4.75;;;30.10;90.10;;;;;;4991695;28;20524;-87
2022/06/30 11:44:57;;;;;;;6.40;5.15;;;30.30;90.20;;;;;;4993016;28;20714;-94
2022/06/30 11:47:24;;;;;;;5.30;4.45;;;30.30;89.90;;;;;;4977047;28;20654;-93
2022/06/30 11:49:50;;;;;;;5.80;4.65;;;30.20;89.10;;;;;;4975974;28;20176;-93
2022/06/30 11:52:20;;;;;;;6.22;4.82;;;30.10;90.30;;;;;;4993379;28;20184;-91
2022/06/30 11:54:53;;;;;;;6.65;4.63;;;30.20;88.50;;;;;;4992273;28;20516;-88
2022/06/30 11:57:21;;;;;;;7.05;4.55;;;30.20;90.40;;;;;;4993019;28;20266;-89
2022/06/30 11:59:51;;;;;;;5.75;4.55;;;30.30;90.00;;;;;;4981078;28;20206;-89
2022/06/30 12:02:18;;;;;;;6.38;4.82;;;30.00;88.80;;;;;;4977596;28;20168;-89
2022/06/30 12:04:49;;;;;;;6.75;4.70;;;29.80;90.20;;;;;;4977257;28;20234;-89
2022/06/30 12:07:16;;;;;;;8.25;5.25;;;29.70;90.30;;;;;;4976224;28;20271;-90
2022/06/30 12:09:44;;;;;;;8.65;5.05;;;29.80;90.90;;;;;;4975918;28;20210;-89
2022/06/30 12:12:10;;;;;;;7.13;4.70;;;30.00;90.80;;;;;;4973610;28;20176;-89
2022/06/30 12:14:39;;;;;;;5.30;4.35;;;30.20;90.30;;;;;;4965248;28;20196;-90
2022/06/30 12:17:10;;;;;;;8.20;4.57;;;30.40;89.80;;;;;;4966109;28;20181;-89
2022/06/30 12:19:37;;;;;;;6.70;4.45;;;30.60;89.80;;;;;;4972271;28;20184;-89
2022/06/30 12:22:06;;;;;;;6.15;4.75;;;30.70;87.90;;;;;;4974264;28;20184;-89
2022/06/30 12:24:35;;;;;;;6.85;4.70;;;30.90;88.40;;;;;;4975672;28;20179;-88
2022/06/30 12:27:00;;;;;;;6.47;4.30;;;31.00;87.90;;;;;;4975603;28;20225;-89
2022/06/30 12:29:28;;;;;;;7.20;4.70;;;31.20;88.30;;;;;;4976441;28;20176;-89
2022/06/30 12:32:11;;;;;;;5.28;3.88;;;31.00;85.50;;;;;;4976770;28;20180;-89
2022/06/30 12:34:54;;;;;;;5.38;4.43;;;30.60;88.10;;;;;;4975669;28;20234;-87
2022/06/30 12:37:37;;;;;;;5.70;4.32;;;30.10;88.10;;;;;;4976675;28;20176;-87
2022/06/30 12:40:14;;;;;;;5.80;4.45;;;29.70;90.00;;;;;;4972484;28;20589;-88
2022/06/30 12:42:44;;;;;;;5.57;4.40;;;29.40;88.90;;;;;;4975150;28;20266;-87
2022/06/30 12:45:36;;;;;;;5.55;4.50;;;29.30;90.20;;;;;;4976369;28;20207;-89
2022/06/30 12:48:04;;;;;;;5.50;4.93;;;29.30;90.70;;;;;;4975387;28;20265;-88
2022/06/30 12:50:40;;;;;;;5.75;4.45;;;29.70;91.10;;;;;;4974125;28;20202;-88
2022/06/30 12:53:23;;;;;;;6.55;5.03;;;30.10;89.40;;;;;;4976213;28;20180;-90
2022/06/30 12:56:13;;;;;;;5.90;4.15;;;30.50;88.60;;;;;;4974417;28;20199;-89
2022/06/30 12:59:06;;;;;;;7.78;4.40;;;30.50;89.50;;;;;;4974479;28;20167;-89
2022/06/30 13:01:42;;;;;;;5.90;4.53;;;30.10;89.00;;;;;;4976099;28;20219;-89
2022/06/30 13:04:15;;;;;;;7.45;5.03;;;30.00;90.20;;;;;;4974064;28;20196;-87
2022/06/30 13:06:42;;;;;;;6.68;4.68;;;30.30;89.60;;;;;;4980089;28;20278;-91
2022/06/30 13:09:10;;;;;;;6.57;4.32;;;30.50;88.40;;;;;;4974030;28;20187;-88